createdAt,value
2023-01-27T00:01:07.585Z,100627.72
2023-01-27T00:03:35.096Z,100635.94
2023-01-27T00:06:04.803Z,100621.50
2023-01-27T00:08:32.182Z,100629.78
2023-01-27T00:11:18.830Z,100627.66
2023-01-27T00:13:46.193Z,100626.34
2023-01-27T00:16:13.773Z,100627.03
2023-01-27T00:18:41.338Z,100630.03
2023-01-27T00:21:27.313Z,100630.59
2023-01-27T00:24:13.338Z,100631.69
2023-01-27T00:26:40.804Z,100628.53
2023-01-27T00:29:09.361Z,100625.09
2023-01-27T00:31:55.257Z,100626.13
2023-01-27T00:34:22.635Z,100626.16
2023-01-27T00:36:50.132Z,100629.75
2023-01-27T00:39:17.523Z,100633.97
2023-01-27T00:41:44.831Z,100627.66
2023-01-27T00:44:13.529Z,100633.28
2023-01-27T00:46:42.489Z,100627.09
2023-01-27T00:49:10.842Z,100631.28
2023-01-27T00:51:38.351Z,100625.97
2023-01-27T00:54:05.855Z,100628.47
2023-01-27T00:56:33.554Z,100639.72
2023-01-27T00:59:01.176Z,100634.06
2023-01-27T01:01:29.249Z,100633.47
2023-01-27T01:03:58.876Z,100630.63
2023-01-27T01:06:26.718Z,100631.44
2023-01-27T01:08:56.918Z,100638.88
2023-01-27T01:11:25.510Z,100640.69
2023-01-27T01:13:55.610Z,100642.38
2023-01-27T01:16:24.907Z,100643.06
2023-01-27T01:18:52.299Z,100650.09
2023-01-27T01:21:21.064Z,100642.97
2023-01-27T01:23:48.513Z,100640.69
2023-01-27T01:26:17.534Z,100643.19
2023-01-27T01:28:45.779Z,100637.88
2023-01-27T01:31:19.234Z,100634.97
2023-01-27T01:33:47.900Z,100636.66
2023-01-27T01:36:18.785Z,100638.25
2023-01-27T01:38:46.957Z,100639.56
2023-01-27T01:41:33.173Z,100637.66
2023-01-27T01:44:21.614Z,100639.34
2023-01-27T01:46:49.028Z,100641.59
2023-01-27T01:49:19.121Z,100643.97
2023-01-27T01:52:01.685Z,100636.97
2023-01-27T01:54:52.604Z,100640.63
2023-01-27T01:57:29.483Z,100634.22
2023-01-27T02:00:02.040Z,100641.16
2023-01-27T02:02:31.448Z,100631.34
2023-01-27T02:05:06.302Z,100639.72
2023-01-27T02:07:38.773Z,100640.53
2023-01-27T02:10:06.479Z,100638.59
2023-01-27T02:12:36.066Z,100632.63
2023-01-27T02:15:05.947Z,100642.03
2023-01-27T02:17:33.757Z,100634.22
2023-01-27T02:20:12.287Z,100642.84
2023-01-27T02:22:56.342Z,100637.78
2023-01-27T02:25:32.749Z,100641.66
2023-01-27T02:28:01.186Z,100637.22
2023-01-27T02:30:28.990Z,100631.84
2023-01-27T02:32:56.706Z,100638.59
2023-01-27T02:35:34.868Z,100642.34
2023-01-27T02:38:04.191Z,100643.28
2023-01-27T02:40:33.310Z,100639.00
2023-01-27T02:43:01.776Z,100631.56
2023-01-27T02:45:29.257Z,100633.97
2023-01-27T02:47:56.760Z,100638.00
2023-01-27T02:50:24.517Z,100629.16
2023-01-27T02:52:51.994Z,100616.78
2023-01-27T02:55:19.371Z,100625.38
2023-01-27T02:57:46.943Z,100622.47
2023-01-27T03:00:33.651Z,100632.66
2023-01-27T03:03:01.160Z,100627.81
2023-01-27T03:05:28.709Z,100628.31
2023-01-27T03:07:56.693Z,100629.06
2023-01-27T03:10:24.144Z,100620.00
2023-01-27T03:12:51.755Z,100627.56
2023-01-27T03:15:37.964Z,100627.34
2023-01-27T03:18:17.985Z,100619.00
2023-01-27T03:20:47.794Z,100626.97
2023-01-27T03:23:18.072Z,100617.00
2023-01-27T03:25:49.852Z,100618.59
2023-01-27T03:28:17.441Z,100620.19
2023-01-27T03:31:02.479Z,100617.91
2023-01-27T03:33:43.160Z,100608.28
2023-01-27T03:36:47.550Z,100617.28
2023-01-27T03:39:33.624Z,100607.94
2023-01-27T03:42:19.558Z,100615.25
2023-01-27T03:45:06.282Z,100620.00
2023-01-27T03:47:33.694Z,100606.13
2023-01-27T03:50:01.199Z,100613.63
2023-01-27T03:52:28.681Z,100603.19
2023-01-27T03:54:56.284Z,100618.19
2023-01-27T03:57:23.822Z,100620.88
2023-01-27T03:59:51.295Z,100614.13
2023-01-27T04:02:38.216Z,100617.63
2023-01-27T04:05:24.743Z,100616.06
2023-01-27T04:07:52.235Z,100619.22
2023-01-27T04:10:19.671Z,100610.63
2023-01-27T04:12:48.738Z,100623.31
2023-01-27T04:15:17.489Z,100626.22
2023-01-27T04:17:46.952Z,100606.22
2023-01-27T04:20:14.605Z,100622.84
2023-01-27T04:22:42.204Z,100617.78
2023-01-27T04:25:12.169Z,100624.53
2023-01-27T04:27:40.504Z,100626.38
2023-01-27T04:30:08.602Z,100612.66
2023-01-27T04:32:36.035Z,100619.31
2023-01-27T04:35:03.744Z,100621.75
2023-01-27T04:37:31.697Z,100622.00
2023-01-27T04:39:59.132Z,100630.09
2023-01-27T04:42:26.695Z,100628.69
2023-01-27T04:44:54.136Z,100623.81
2023-01-27T04:47:21.691Z,100626.22
2023-01-27T04:49:49.148Z,100628.72
2023-01-27T04:52:16.615Z,100612.88
2023-01-27T04:54:44.066Z,100620.16
2023-01-27T04:57:11.757Z,100615.38
2023-01-27T04:59:39.204Z,100631.13
2023-01-27T05:02:07.004Z,100626.59
2023-01-27T05:04:34.515Z,100623.59
2023-01-27T05:07:02.513Z,100632.53
2023-01-27T05:09:29.910Z,100628.47
2023-01-27T05:11:57.523Z,100640.34
2023-01-27T05:14:26.161Z,100643.59
2023-01-27T05:16:53.632Z,100647.66
2023-01-27T05:19:21.107Z,100654.94
2023-01-27T05:21:48.531Z,100656.03
2023-01-27T05:24:16.083Z,100651.69
2023-01-27T05:26:43.606Z,100644.69
2023-01-27T05:29:11.005Z,100650.91
2023-01-27T05:31:38.693Z,100655.03
2023-01-27T05:34:06.178Z,100661.22
2023-01-27T05:36:33.659Z,100665.97
2023-01-27T05:39:01.071Z,100659.78
2023-01-27T05:41:32.801Z,100661.13
2023-01-27T05:44:00.447Z,100671.91
2023-01-27T05:46:30.311Z,100672.97
2023-01-27T05:49:00.846Z,100667.59
2023-01-27T05:51:33.639Z,100673.25
2023-01-27T05:54:01.259Z,100665.97
2023-01-27T05:56:28.832Z,100679.72
2023-01-27T05:58:58.140Z,100676.75
2023-01-27T06:01:29.824Z,100674.31
2023-01-27T06:03:57.769Z,100680.47
2023-01-27T06:06:28.159Z,100684.22
2023-01-27T06:08:55.651Z,100682.34
2023-01-27T06:11:24.902Z,100677.53
2023-01-27T06:13:53.626Z,100682.63
2023-01-27T06:16:22.886Z,100666.56
2023-01-27T06:18:51.120Z,100683.50
2023-01-27T06:21:20.570Z,100682.88
2023-01-27T06:23:48.809Z,100669.44
2023-01-27T06:26:18.183Z,100678.06
2023-01-27T06:28:45.830Z,100683.72
2023-01-27T06:31:16.452Z,100693.16
2023-01-27T06:33:44.500Z,100692.81
2023-01-27T06:36:14.676Z,100686.69
2023-01-27T06:38:42.917Z,100681.00
2023-01-27T06:41:10.743Z,100692.25
2023-01-27T06:43:38.356Z,100692.81
2023-01-27T06:46:06.316Z,100693.44
2023-01-27T06:48:34.306Z,100700.13
2023-01-27T06:51:01.785Z,100704.69
2023-01-27T06:53:29.445Z,100700.13
2023-01-27T06:55:59.030Z,100710.84
2023-01-27T06:58:27.500Z,100704.19
2023-01-27T07:00:56.174Z,100706.09
2023-01-27T07:03:24.239Z,100694.00
2023-01-27T07:05:53.267Z,100715.19
2023-01-27T07:08:21.041Z,100717.03
2023-01-27T07:10:48.528Z,100717.84
2023-01-27T07:13:16.117Z,100713.31
2023-01-27T07:15:43.743Z,100717.28
2023-01-27T07:18:14.278Z,100712.72
2023-01-27T07:20:42.146Z,100723.44
2023-01-27T07:23:10.298Z,100724.22
2023-01-27T07:25:38.205Z,100719.41
2023-01-27T07:28:06.514Z,100717.78
2023-01-27T07:30:38.959Z,100730.38
2023-01-27T07:33:08.183Z,100738.59
2023-01-27T07:35:37.064Z,100744.31
2023-01-27T07:38:06.349Z,100735.97
2023-01-27T07:40:34.156Z,100734.34
2023-01-27T07:43:02.362Z,100735.41
2023-01-27T07:45:30.327Z,100742.34
2023-01-27T07:48:05.543Z,100738.22
2023-01-27T07:50:33.768Z,100734.47
2023-01-27T07:53:02.324Z,100742.59
2023-01-27T07:55:31.013Z,100743.91
2023-01-27T07:57:58.896Z,100731.47
2023-01-27T08:00:26.621Z,100730.38
2023-01-27T08:02:55.347Z,100733.88
2023-01-27T08:05:23.371Z,100734.97
2023-01-27T08:07:52.228Z,100734.19
2023-01-27T08:10:19.827Z,100732.91
2023-01-27T08:12:47.518Z,100736.34
2023-01-27T08:15:18.653Z,100728.53
2023-01-27T08:17:54.456Z,100745.97
2023-01-27T08:20:23.168Z,100744.59
2023-01-27T08:22:50.839Z,100748.09
2023-01-27T08:25:18.673Z,100755.03
2023-01-27T08:27:49.992Z,100756.38
2023-01-27T08:30:18.087Z,100755.88
2023-01-27T08:32:45.770Z,100741.78
2023-01-27T08:35:13.343Z,100747.97
2023-01-27T08:37:40.985Z,100736.03
2023-01-27T08:40:09.326Z,100748.66
2023-01-27T08:43:04.738Z,100754.00
2023-01-27T08:45:32.827Z,100757.44
2023-01-27T08:48:00.478Z,100751.97
2023-01-27T08:50:29.593Z,100755.69
2023-01-27T08:53:00.785Z,100743.09
2023-01-27T08:55:29.295Z,100764.00
2023-01-27T08:57:56.919Z,100748.06
2023-01-27T09:00:24.799Z,100758.06
2023-01-27T09:02:52.555Z,100758.75
2023-01-27T09:05:21.504Z,100756.59
2023-01-27T09:07:49.500Z,100754.38
2023-01-27T09:10:17.702Z,100758.63
2023-01-27T09:12:46.016Z,100757.56
2023-01-27T09:15:14.955Z,100760.13
2023-01-27T09:17:42.660Z,100763.16
2023-01-27T09:20:11.275Z,100755.97
2023-01-27T09:22:40.592Z,100767.03
2023-01-27T09:25:12.407Z,100765.34
2023-01-27T09:27:40.497Z,100769.34
2023-01-27T09:30:11.010Z,100774.50
2023-01-27T09:32:38.946Z,100782.53
2023-01-27T09:35:07.233Z,100774.88
2023-01-27T09:37:41.997Z,100780.75
2023-01-27T09:40:24.578Z,100783.41
2023-01-27T09:43:01.191Z,100790.28
2023-01-27T09:46:08.581Z,100789.25
2023-01-27T09:48:54.371Z,100788.34
2023-01-27T09:52:03.082Z,100789.13
2023-01-27T09:54:48.912Z,100790.47
2023-01-27T09:57:34.377Z,100779.72
2023-01-27T10:00:35.278Z,100783.50
2023-01-27T10:03:27.315Z,100789.13
2023-01-27T10:06:22.891Z,100782.53
2023-01-27T10:09:20.998Z,100785.63
2023-01-27T10:12:17.725Z,100791.59
2023-01-27T10:15:05.765Z,100790.97
2023-01-27T10:17:47.250Z,100786.25
2023-01-27T10:20:25.327Z,100787.56
2023-01-27T10:23:08.069Z,100786.25
2023-01-27T10:26:08.576Z,100787.69
2023-01-27T10:28:38.043Z,100786.56
2023-01-27T10:31:16.083Z,100779.09
2023-01-27T10:33:52.823Z,100775.78
2023-01-27T10:36:34.761Z,100772.06
2023-01-27T10:39:36.057Z,100771.50
2023-01-27T10:42:18.721Z,100775.94
2023-01-27T10:45:28.832Z,100768.06
2023-01-27T10:48:02.260Z,100776.59
2023-01-27T10:50:36.559Z,100766.66
2023-01-27T10:53:13.125Z,100780.97
2023-01-27T10:56:04.308Z,100773.00
2023-01-27T10:58:38.397Z,100782.72
2023-01-27T11:01:23.965Z,100775.13
2023-01-27T11:04:02.060Z,100771.84
2023-01-27T11:06:37.728Z,100767.25
2023-01-27T11:09:29.379Z,100769.53
2023-01-27T11:12:02.879Z,100763.78
2023-01-27T11:14:45.234Z,100761.44
2023-01-27T11:17:37.243Z,100760.84
2023-01-27T11:20:23.443Z,100761.22
2023-01-27T11:22:56.968Z,100756.91
2023-01-27T11:26:06.227Z,100741.84
2023-01-27T11:28:42.460Z,100745.75
2023-01-27T11:31:14.270Z,100747.94
2023-01-27T11:34:03.074Z,100745.75
2023-01-27T11:36:31.067Z,100729.69
2023-01-27T11:38:59.275Z,100732.09
2023-01-27T11:41:26.781Z,100732.41
2023-01-27T11:43:54.540Z,100728.78
2023-01-27T11:46:24.340Z,100729.69
2023-01-27T11:48:57.553Z,100719.00
2023-01-27T11:51:30.789Z,100710.84
2023-01-27T11:54:12.990Z,100711.84
2023-01-27T11:56:44.050Z,100704.00
2023-01-27T11:59:39.940Z,100706.53
2023-01-27T12:02:07.303Z,100708.13
2023-01-27T12:04:35.079Z,100715.03
2023-01-27T12:07:17.583Z,100704.94
2023-01-27T12:09:45.241Z,100711.28
2023-01-27T12:12:15.891Z,100700.44
2023-01-27T12:14:55.109Z,100690.19
2023-01-27T12:17:27.952Z,100687.91
2023-01-27T12:19:59.455Z,100698.53
2023-01-27T12:22:32.598Z,100687.13
2023-01-27T12:25:05.194Z,100683.31
2023-01-27T12:27:58.974Z,100678.69
2023-01-27T12:30:29.454Z,100681.59
2023-01-27T12:32:58.868Z,100682.25
2023-01-27T12:35:30.731Z,100672.59
2023-01-27T12:38:05.196Z,100675.03
2023-01-27T12:40:33.814Z,100663.19
2023-01-27T12:43:13.515Z,100661.63
2023-01-27T12:45:43.685Z,100657.81
2023-01-27T12:48:14.544Z,100664.47
2023-01-27T12:50:43.083Z,100661.09
2023-01-27T12:53:27.602Z,100644.66
2023-01-27T12:56:04.507Z,100642.19
2023-01-27T12:58:45.527Z,100650.56
2023-01-27T13:01:32.086Z,100646.56
2023-01-27T13:04:03.387Z,100640.72
2023-01-27T13:06:37.092Z,100632.19
2023-01-27T13:09:04.967Z,100627.44
2023-01-27T13:11:40.915Z,100624.41
2023-01-27T13:14:16.776Z,100636.63
2023-01-27T13:16:55.236Z,100632.34
2023-01-27T13:19:41.704Z,100637.84
2023-01-27T13:22:17.308Z,100638.16
2023-01-27T13:24:50.233Z,100631.78
2023-01-27T13:27:22.024Z,100628.63
2023-01-27T13:30:02.701Z,100630.81
2023-01-27T13:32:35.484Z,100638.22
2023-01-27T13:35:26.493Z,100636.25
2023-01-27T13:38:15.576Z,100626.22
2023-01-27T13:40:45.678Z,100620.75
2023-01-27T13:43:36.211Z,100635.94
2023-01-27T13:46:21.517Z,100632.41
2023-01-27T13:48:54.562Z,100634.91
2023-01-27T13:51:30.401Z,100628.47
2023-01-27T13:54:02.923Z,100624.25
2023-01-27T13:56:45.605Z,100630.63
2023-01-27T13:59:29.055Z,100636.91
2023-01-27T14:02:22.543Z,100633.00
2023-01-27T14:05:28.193Z,100624.19
2023-01-27T14:08:10.316Z,100638.03
2023-01-27T14:10:42.042Z,100635.09
2023-01-27T14:13:40.287Z,100643.28
2023-01-27T14:16:17.043Z,100637.97
2023-01-27T14:19:00.742Z,100635.03
2023-01-27T14:21:47.602Z,100629.72
2023-01-27T14:24:27.475Z,100648.97
2023-01-27T14:27:08.203Z,100638.91
2023-01-27T14:29:54.187Z,100641.59
2023-01-27T14:32:36.081Z,100648.84
2023-01-27T14:35:43.127Z,100652.44
2023-01-27T14:38:32.553Z,100652.44
2023-01-27T14:41:40.234Z,100657.97
2023-01-27T14:44:38.398Z,100655.78
2023-01-27T14:47:24.178Z,100650.56
2023-01-27T14:49:54.651Z,100645.28
2023-01-27T14:52:29.227Z,100657.50
2023-01-27T14:55:21.638Z,100652.97
2023-01-27T14:57:55.778Z,100660.81
2023-01-27T15:01:03.980Z,100669.72
2023-01-27T15:04:06.205Z,100667.69
2023-01-27T15:06:33.519Z,100668.94
2023-01-27T15:09:33.349Z,100675.53
2023-01-27T15:12:25.536Z,100668.91
2023-01-27T15:15:30.821Z,100673.94
2023-01-27T15:18:09.145Z,100670.81
2023-01-27T15:21:09.014Z,100677.25
2023-01-27T15:23:55.229Z,100672.13
2023-01-27T15:26:25.593Z,100670.03
2023-01-27T15:28:53.962Z,100673.84
2023-01-27T15:31:25.928Z,100668.16
2023-01-27T15:34:20.233Z,100670.63
2023-01-27T15:37:20.203Z,100667.78
2023-01-27T15:40:16.420Z,100669.97
2023-01-27T15:43:02.016Z,100687.72
2023-01-27T15:45:37.384Z,100686.56
2023-01-27T15:48:22.519Z,100681.44
2023-01-27T15:51:01.723Z,100682.34
2023-01-27T15:53:35.316Z,100684.81
2023-01-27T15:56:04.005Z,100678.63
2023-01-27T15:58:40.696Z,100680.47
2023-01-27T16:01:29.078Z,100682.50
2023-01-27T16:04:17.626Z,100690.28
2023-01-27T16:07:02.000Z,100697.50
2023-01-27T16:09:43.164Z,100708.06
2023-01-27T16:12:20.142Z,100708.16
2023-01-27T16:14:47.924Z,100705.94
2023-01-27T16:17:20.320Z,100712.66
2023-01-27T16:20:19.977Z,100712.94
2023-01-27T16:22:58.512Z,100708.22
2023-01-27T16:26:15.485Z,100711.53
2023-01-27T16:28:46.880Z,100715.13
2023-01-27T16:31:19.480Z,100707.34
2023-01-27T16:33:51.761Z,100720.78
2023-01-27T16:36:32.088Z,100733.72
2023-01-27T16:39:18.595Z,100733.78
2023-01-27T16:41:53.602Z,100730.69
2023-01-27T16:44:25.968Z,100736.03
2023-01-27T16:47:14.931Z,100712.75
2023-01-27T16:49:44.799Z,100739.63
2023-01-27T16:52:35.903Z,100734.78
2023-01-27T16:55:20.071Z,100740.81
2023-01-27T16:57:47.656Z,100732.53
2023-01-27T17:00:21.855Z,100741.13
2023-01-27T17:02:51.792Z,100740.88
2023-01-27T17:05:20.698Z,100740.97
2023-01-27T17:08:16.338Z,100752.81
2023-01-27T17:11:04.050Z,100755.25
2023-01-27T17:13:46.275Z,100757.34
2023-01-27T17:16:22.319Z,100759.31
2023-01-27T17:18:52.863Z,100761.47
2023-01-27T17:21:31.027Z,100761.72
2023-01-27T17:24:14.611Z,100760.16
2023-01-27T17:26:49.580Z,100771.75
2023-01-27T17:29:21.500Z,100770.44
2023-01-27T17:31:49.523Z,100780.44
2023-01-27T17:34:19.874Z,100779.88
2023-01-27T17:37:07.059Z,100780.72
2023-01-27T17:39:37.551Z,100779.91
2023-01-27T17:42:05.847Z,100786.16
2023-01-27T17:44:33.522Z,100787.81
2023-01-27T17:47:02.113Z,100785.41
2023-01-27T17:49:31.135Z,100790.88
2023-01-27T17:52:00.248Z,100793.88
2023-01-27T17:54:41.626Z,100791.69
2023-01-27T17:57:16.210Z,100797.31
2023-01-27T17:59:46.910Z,100807.81
2023-01-27T18:02:26.593Z,100806.72
2023-01-27T18:04:57.259Z,100809.69
2023-01-27T18:07:24.958Z,100815.91
2023-01-27T18:09:54.527Z,100814.63
2023-01-27T18:12:34.127Z,100823.53
2023-01-27T18:15:32.621Z,100828.34
2023-01-27T18:18:01.756Z,100828.94
2023-01-27T18:20:34.443Z,100827.56
2023-01-27T18:23:12.744Z,100834.84
2023-01-27T18:25:53.792Z,100845.38
2023-01-27T18:28:21.201Z,100842.19
2023-01-27T18:30:50.945Z,100841.66
2023-01-27T18:33:18.480Z,100850.59
2023-01-27T18:35:57.268Z,100850.03
2023-01-27T18:38:27.057Z,100861.38
2023-01-27T18:40:55.819Z,100863.50
2023-01-27T18:43:41.635Z,100874.06
2023-01-27T18:46:10.410Z,100870.00
2023-01-27T18:48:39.887Z,100870.28
2023-01-27T18:51:13.874Z,100876.22
2023-01-27T18:53:42.066Z,100879.97
2023-01-27T18:56:09.807Z,100885.66
2023-01-27T18:58:38.357Z,100884.28
2023-01-27T19:01:15.994Z,100877.28
2023-01-27T19:03:43.444Z,100879.19
2023-01-27T19:06:16.543Z,100885.66
2023-01-27T19:08:44.703Z,100889.66
2023-01-27T19:11:16.244Z,100885.06
2023-01-27T19:13:44.811Z,100886.69
2023-01-27T19:16:16.029Z,100896.09
2023-01-27T19:18:45.155Z,100895.81
2023-01-27T19:21:14.150Z,100886.44
2023-01-27T19:23:46.081Z,100891.53
2023-01-27T19:26:22.056Z,100892.91
2023-01-27T19:28:54.017Z,100892.34
2023-01-27T19:31:22.022Z,100900.16
2023-01-27T19:33:50.028Z,100901.00
2023-01-27T19:36:17.307Z,100898.00
2023-01-27T19:38:44.769Z,100896.41
2023-01-27T19:41:12.527Z,100898.56
2023-01-27T19:43:41.253Z,100904.50
2023-01-27T19:46:18.358Z,100909.59
2023-01-27T19:48:45.939Z,100913.91
2023-01-27T19:51:13.379Z,100917.16
2023-01-27T19:53:41.170Z,100914.47
2023-01-27T19:56:15.970Z,100920.66
2023-01-27T19:58:47.111Z,100921.19
2023-01-27T20:01:14.575Z,100923.88
2023-01-27T20:03:41.946Z,100922.53
2023-01-27T20:06:16.115Z,100925.75
2023-01-27T20:08:43.955Z,100926.84
2023-01-27T20:11:29.791Z,100938.13
2023-01-27T20:13:57.579Z,100944.34
2023-01-27T20:16:25.724Z,100941.38
2023-01-27T20:18:53.957Z,100936.00
2023-01-27T20:21:21.454Z,100936.00
2023-01-27T20:23:49.268Z,100941.91
2023-01-27T20:26:18.197Z,100942.19
2023-01-27T20:28:47.193Z,100938.44
2023-01-27T20:31:17.695Z,100951.59
2023-01-27T20:33:49.812Z,100942.44
2023-01-27T20:36:20.565Z,100952.69
2023-01-27T20:38:48.561Z,100947.81
2023-01-27T20:41:18.876Z,100949.72
2023-01-27T20:43:46.957Z,100954.00
2023-01-27T20:46:17.522Z,100962.09
2023-01-27T20:48:44.898Z,100952.13
2023-01-27T20:51:14.413Z,100956.44
2023-01-27T20:53:45.903Z,100965.31
2023-01-27T20:56:16.213Z,100952.38
2023-01-27T20:58:44.463Z,100955.56
2023-01-27T21:01:17.658Z,100956.91
2023-01-27T21:03:45.721Z,100959.34
2023-01-27T21:06:15.736Z,100959.91
2023-01-27T21:08:43.785Z,100963.13
2023-01-27T21:11:12.975Z,100958.03
2023-01-27T21:13:40.520Z,100962.06
2023-01-27T21:16:08.466Z,100962.34
2023-01-27T21:18:36.587Z,100964.22
2023-01-27T21:21:04.779Z,100965.31
2023-01-27T21:23:33.820Z,100960.72
2023-01-27T21:26:06.310Z,100945.38
2023-01-27T21:28:34.046Z,100967.41
2023-01-27T21:31:16.203Z,100965.53
2023-01-27T21:33:51.073Z,100972.78
2023-01-27T21:36:19.268Z,100968.47
2023-01-27T21:38:50.317Z,100975.47
2023-01-27T21:41:37.387Z,100967.97
2023-01-27T21:44:25.120Z,100973.59
2023-01-27T21:46:52.679Z,100966.88
2023-01-27T21:49:20.156Z,100976.28
2023-01-27T21:51:49.893Z,100983.00
2023-01-27T21:54:17.630Z,100970.34
2023-01-27T21:56:45.088Z,100974.38
2023-01-27T21:59:12.575Z,100976.81
2023-01-27T22:01:40.021Z,100974.38
2023-01-27T22:04:07.490Z,100971.19
2023-01-27T22:06:36.956Z,100978.16
2023-01-27T22:09:04.523Z,100978.97
2023-01-27T22:11:32.012Z,100981.91
2023-01-27T22:13:59.361Z,100984.59
2023-01-27T22:16:26.717Z,100987.56
2023-01-27T22:18:54.176Z,100981.91
2023-01-27T22:21:21.481Z,100980.81
2023-01-27T22:23:48.803Z,100986.22
2023-01-27T22:26:16.162Z,100976.00
2023-01-27T22:28:44.064Z,100988.09
2023-01-27T22:31:11.563Z,100981.38
2023-01-27T22:33:38.908Z,100978.69
2023-01-27T22:36:07.286Z,100968.97
2023-01-27T22:38:38.907Z,100977.06
2023-01-27T22:41:06.495Z,100983.00
2023-01-27T22:43:33.929Z,100982.72
2023-01-27T22:46:02.553Z,100985.41
2023-01-27T22:48:30.567Z,100987.81
2023-01-27T22:51:03.774Z,100992.69
2023-01-27T22:53:31.771Z,100992.97
2023-01-27T22:56:00.950Z,101002.13
2023-01-27T22:58:29.522Z,101005.34
2023-01-27T23:00:57.101Z,101001.88
2023-01-27T23:03:24.603Z,100992.19
2023-01-27T23:05:52.115Z,100990.53
2023-01-27T23:08:20.716Z,100987.56
2023-01-27T23:10:49.292Z,100992.63
2023-01-27T23:13:16.688Z,100981.06
2023-01-27T23:15:44.051Z,100981.31
2023-01-27T23:18:11.604Z,100985.34
2023-01-27T23:20:40.230Z,100974.59
2023-01-27T23:23:09.251Z,100975.94
2023-01-27T23:25:41.928Z,100964.63
2023-01-27T23:28:09.239Z,100969.22
2023-01-27T23:30:36.710Z,100978.09
2023-01-27T23:33:04.085Z,100977.03
2023-01-27T23:35:31.424Z,100970.81
2023-01-27T23:37:58.722Z,100972.44
2023-01-27T23:40:26.217Z,100976.47
2023-01-27T23:42:53.530Z,100983.75
2023-01-27T23:45:20.911Z,100990.44
2023-01-27T23:47:48.252Z,100984.28
2023-01-27T23:50:15.880Z,100987.78
2023-01-27T23:52:43.224Z,100985.41
2023-01-27T23:55:12.848Z,100983.53
2023-01-27T23:57:40.846Z,100988.09
